createdAt,value
2018-11-13T00:00:47.256Z,1.66
2018-11-13T00:01:47.729Z,1.62
2018-11-13T00:02:48.200Z,1.63
2018-11-13T00:03:48.674Z,1.58
2018-11-13T00:04:49.144Z,1.51
2018-11-13T00:05:49.618Z,1.52
2018-11-13T00:06:50.091Z,1.50
2018-11-13T00:07:50.558Z,1.62
2018-11-13T00:08:51.031Z,1.62
2018-11-13T00:09:51.502Z,1.56
2018-11-13T00:10:51.974Z,1.52
2018-11-13T00:11:52.445Z,1.50
2018-11-13T00:12:52.917Z,1.51
2018-11-13T00:13:53.386Z,1.54
2018-11-13T00:14:53.855Z,1.60
2018-11-13T00:15:54.323Z,1.64
2018-11-13T00:16:54.794Z,1.57
2018-11-13T00:17:55.265Z,1.60
2018-11-13T00:18:55.732Z,1.63
2018-11-13T00:19:56.207Z,1.56
2018-11-13T00:20:56.676Z,1.66
2018-11-13T00:21:57.147Z,1.67
2018-11-13T00:22:57.613Z,1.78
2018-11-13T00:23:58.125Z,1.81
2018-11-13T00:24:58.549Z,1.88
2018-11-13T00:25:59.020Z,1.68
2018-11-13T00:26:59.488Z,1.68
2018-11-13T00:27:59.959Z,1.62
2018-11-13T00:29:00.426Z,1.64
2018-11-13T00:30:00.896Z,1.67
2018-11-13T00:31:01.365Z,1.64
2018-11-13T00:32:01.834Z,1.56
2018-11-13T00:33:02.307Z,1.48
2018-11-13T00:34:02.774Z,1.40
2018-11-13T00:35:03.245Z,1.43
2018-11-13T00:36:03.718Z,1.47
2018-11-13T00:37:04.182Z,1.54
2018-11-13T00:38:04.653Z,1.64
2018-11-13T00:39:05.128Z,1.70
2018-11-13T00:40:05.597Z,1.64
2018-11-13T00:41:06.065Z,1.64
2018-11-13T00:42:06.532Z,1.61
2018-11-13T00:43:07.004Z,1.51
2018-11-13T00:44:07.473Z,1.52
2018-11-13T00:45:07.942Z,1.53
2018-11-13T00:46:08.438Z,1.46
2018-11-13T00:47:08.889Z,1.41
2018-11-13T00:48:09.367Z,1.58
2018-11-13T00:49:09.830Z,1.63
2018-11-13T00:50:10.296Z,1.57
2018-11-13T00:51:10.770Z,1.55
2018-11-13T00:52:11.244Z,1.50
2018-11-13T00:53:11.714Z,1.50
2018-11-13T00:54:12.183Z,1.49
2018-11-13T00:55:12.657Z,1.32
2018-11-13T00:56:13.126Z,1.40
2018-11-13T00:57:13.599Z,1.56
2018-11-13T00:58:14.071Z,1.60
2018-11-13T00:59:14.584Z,1.66
2018-11-13T01:00:15.057Z,1.74
2018-11-13T01:01:15.487Z,1.72
2018-11-13T01:02:15.960Z,1.74
2018-11-13T01:03:16.433Z,1.67
2018-11-13T01:04:16.905Z,1.66
2018-11-13T01:05:17.404Z,1.60
2018-11-13T01:06:17.852Z,1.60
2018-11-13T01:07:18.324Z,1.62
2018-11-13T01:08:18.796Z,1.76
2018-11-13T01:09:19.271Z,1.70
2018-11-13T01:10:19.747Z,1.64
2018-11-13T01:11:20.217Z,1.60
2018-11-13T01:12:20.689Z,1.72
2018-11-13T01:13:21.164Z,1.80
2018-11-13T01:14:21.638Z,1.78
2018-11-13T01:15:22.109Z,1.74
2018-11-13T01:16:22.582Z,1.73
2018-11-13T01:17:23.107Z,1.57
2018-11-13T01:18:23.529Z,1.67
2018-11-13T01:19:24.001Z,1.75
2018-11-13T01:20:24.474Z,1.80
2018-11-13T01:21:24.943Z,1.84
2018-11-13T01:22:25.471Z,1.82
2018-11-13T01:23:25.893Z,1.74
2018-11-13T01:24:26.360Z,1.70
2018-11-13T01:25:26.833Z,1.68
2018-11-13T01:26:27.305Z,1.72
2018-11-13T01:27:27.774Z,1.71
2018-11-13T01:28:28.244Z,1.74
2018-11-13T01:29:28.718Z,1.68
2018-11-13T01:30:29.188Z,1.66
2018-11-13T01:31:29.659Z,1.87
2018-11-13T01:32:30.127Z,2.00
2018-11-13T01:33:30.599Z,1.99
2018-11-13T01:34:31.072Z,1.87
2018-11-13T01:35:31.560Z,1.68
2018-11-13T01:36:32.008Z,1.51
2018-11-13T01:37:32.479Z,1.41
2018-11-13T01:38:32.949Z,1.38
2018-11-13T01:39:33.417Z,1.38
2018-11-13T01:40:33.887Z,1.42
2018-11-13T01:41:34.365Z,1.46
2018-11-13T01:42:34.824Z,1.42
2018-11-13T01:43:35.294Z,1.42
2018-11-13T01:44:35.766Z,1.38
2018-11-13T01:45:36.231Z,1.40
2018-11-13T01:46:36.701Z,1.38
2018-11-13T01:47:37.170Z,1.38
2018-11-13T01:48:37.640Z,1.36
2018-11-13T01:49:38.188Z,1.36
2018-11-13T01:50:38.579Z,1.58
2018-11-13T01:51:39.048Z,1.62
2018-11-13T01:52:39.643Z,1.71
2018-11-13T01:53:39.988Z,1.60
2018-11-13T01:54:40.457Z,1.58
2018-11-13T01:55:41.036Z,1.46
2018-11-13T01:56:41.396Z,1.30
2018-11-13T01:57:41.895Z,1.15
2018-11-13T01:58:42.410Z,1.34
2018-11-13T01:59:42.944Z,1.51
2018-11-13T02:00:43.274Z,1.51
2018-11-13T02:01:43.747Z,1.46
2018-11-13T02:02:44.218Z,1.42
2018-11-13T02:03:44.689Z,1.26
2018-11-13T02:04:45.159Z,1.16
2018-11-13T02:05:45.630Z,1.16
2018-11-13T02:06:46.100Z,1.20
2018-11-13T02:07:46.574Z,1.28
2018-11-13T02:08:47.043Z,1.36
2018-11-13T02:09:47.514Z,1.44
2018-11-13T02:10:47.988Z,1.50
2018-11-13T02:11:48.459Z,1.52
2018-11-13T02:12:48.935Z,1.64
2018-11-13T02:13:49.400Z,1.60
2018-11-13T02:14:49.872Z,1.66
2018-11-13T02:15:50.344Z,1.62
2018-11-13T02:16:50.816Z,1.54
2018-11-13T02:17:51.288Z,1.61
2018-11-13T02:18:51.760Z,1.74
2018-11-13T02:19:52.234Z,1.82
2018-11-13T02:20:52.705Z,1.75
2018-11-13T02:21:53.179Z,1.74
2018-11-13T02:22:53.650Z,1.69
2018-11-13T02:23:54.125Z,1.59
2018-11-13T02:24:54.594Z,1.50
2018-11-13T02:25:55.075Z,1.42
2018-11-13T02:26:55.542Z,1.48
2018-11-13T02:27:56.015Z,1.46
2018-11-13T02:28:56.495Z,1.62
2018-11-13T02:29:56.960Z,1.65
2018-11-13T02:30:57.436Z,1.48
2018-11-13T02:31:57.911Z,1.41
2018-11-13T02:32:58.380Z,1.55
2018-11-13T02:33:58.854Z,1.68
2018-11-13T02:34:59.327Z,1.73
2018-11-13T02:35:59.800Z,1.76
2018-11-13T02:37:00.272Z,1.78
2018-11-13T02:38:00.747Z,1.85
2018-11-13T02:39:01.221Z,1.86
2018-11-13T02:40:01.694Z,1.82
2018-11-13T02:41:02.162Z,1.76
2018-11-13T02:42:02.637Z,1.76
2018-11-13T02:43:03.108Z,1.86
2018-11-13T02:44:03.582Z,1.86
2018-11-13T02:45:04.050Z,1.85
2018-11-13T02:46:04.521Z,1.88
2018-11-13T02:47:04.992Z,1.98
2018-11-13T02:48:05.468Z,1.98
2018-11-13T02:49:05.937Z,1.82
2018-11-13T02:50:06.406Z,1.72
2018-11-13T02:51:06.876Z,1.50
2018-11-13T02:52:07.348Z,1.46
2018-11-13T02:53:07.819Z,1.59
2018-11-13T02:54:08.285Z,1.62
2018-11-13T02:55:08.758Z,1.62
2018-11-13T02:56:09.225Z,1.68
2018-11-13T02:57:09.695Z,1.60
2018-11-13T02:58:10.171Z,1.67
2018-11-13T02:59:10.636Z,1.80
2018-11-13T03:00:11.103Z,1.80
2018-11-13T03:01:11.573Z,1.76
2018-11-13T03:02:12.041Z,1.70
2018-11-13T03:03:12.512Z,1.65
2018-11-13T03:04:12.983Z,1.72
2018-11-13T03:05:13.451Z,1.65
2018-11-13T03:06:13.919Z,1.62
2018-11-13T03:07:14.387Z,1.46
2018-11-13T03:08:14.857Z,1.50
2018-11-13T03:09:15.325Z,1.56
2018-11-13T03:10:15.795Z,1.46
2018-11-13T03:11:16.265Z,1.53
2018-11-13T03:12:16.734Z,1.54
2018-11-13T03:13:17.202Z,1.60
2018-11-13T03:14:17.672Z,1.70
2018-11-13T03:15:18.151Z,1.66
2018-11-13T03:16:18.612Z,1.80
2018-11-13T03:17:19.080Z,1.78
2018-11-13T03:18:19.554Z,1.57
2018-11-13T03:19:20.022Z,1.50
2018-11-13T03:20:20.493Z,1.62
2018-11-13T03:21:20.964Z,1.72
2018-11-13T03:22:21.433Z,1.78
2018-11-13T03:23:21.903Z,1.74
2018-11-13T03:24:22.373Z,1.62
2018-11-13T03:25:22.844Z,1.65
2018-11-13T03:26:23.318Z,1.73
2018-11-13T03:27:23.787Z,1.76
2018-11-13T03:28:24.266Z,1.61
2018-11-13T03:29:24.728Z,1.75
2018-11-13T03:30:25.201Z,1.86
2018-11-13T03:31:25.751Z,1.76
2018-11-13T03:32:26.145Z,1.88
2018-11-13T03:33:26.618Z,1.94
2018-11-13T03:34:27.087Z,1.82
2018-11-13T03:35:27.560Z,1.60
2018-11-13T03:36:28.032Z,1.50
2018-11-13T03:37:28.501Z,1.49
2018-11-13T03:38:28.974Z,1.52
2018-11-13T03:39:29.447Z,1.70
2018-11-13T03:40:29.920Z,1.68
2018-11-13T03:41:30.389Z,1.60
2018-11-13T03:42:30.866Z,1.54
2018-11-13T03:43:31.335Z,1.48
2018-11-13T03:44:31.807Z,1.36
2018-11-13T03:45:32.280Z,1.40
2018-11-13T03:46:32.753Z,1.54
2018-11-13T03:47:33.226Z,1.56
2018-11-13T03:48:33.702Z,1.48
2018-11-13T03:49:34.173Z,1.42
2018-11-13T03:50:34.646Z,1.45
2018-11-13T03:51:35.119Z,1.44
2018-11-13T03:52:35.591Z,1.51
2018-11-13T03:53:36.063Z,1.52
2018-11-13T03:54:36.538Z,1.46
2018-11-13T03:55:37.011Z,1.38
2018-11-13T03:56:37.484Z,1.31
2018-11-13T03:57:37.957Z,1.46
2018-11-13T03:58:38.428Z,1.47
2018-11-13T03:59:38.903Z,1.34
2018-11-13T04:00:39.437Z,1.30
2018-11-13T04:01:39.870Z,1.20
2018-11-13T04:02:40.357Z,1.16
2018-11-13T04:03:40.823Z,1.10
2018-11-13T04:04:41.267Z,1.08
2018-11-13T04:05:41.735Z,1.06
2018-11-13T04:06:42.208Z,1.04
2018-11-13T04:07:42.678Z,1.04
2018-11-13T04:08:43.155Z,1.04
2018-11-13T04:09:43.621Z,1.19
2018-11-13T04:10:44.091Z,1.22
2018-11-13T04:11:44.561Z,1.23
2018-11-13T04:12:45.033Z,1.34
2018-11-13T04:13:45.502Z,1.47
2018-11-13T04:14:45.971Z,1.42
2018-11-13T04:15:46.441Z,1.49
2018-11-13T04:16:46.911Z,1.64
2018-11-13T04:17:47.381Z,1.63
2018-11-13T04:18:47.849Z,1.64
2018-11-13T04:19:48.319Z,1.69
2018-11-13T04:20:48.787Z,1.78
2018-11-13T04:21:49.256Z,1.80
2018-11-13T04:22:49.726Z,1.74
2018-11-13T04:23:50.195Z,1.67
2018-11-13T04:24:50.666Z,1.56
2018-11-13T04:25:51.132Z,1.52
2018-11-13T04:26:51.603Z,1.48
2018-11-13T04:27:52.075Z,1.42
2018-11-13T04:28:52.541Z,1.50
2018-11-13T04:29:53.010Z,1.50
2018-11-13T04:30:53.662Z,1.52
2018-11-13T04:31:53.949Z,1.54
2018-11-13T04:32:54.421Z,1.47
2018-11-13T04:33:54.890Z,1.46
2018-11-13T04:34:55.357Z,1.52
2018-11-13T04:35:55.827Z,1.50
2018-11-13T04:36:56.298Z,1.48
2018-11-13T04:37:56.765Z,1.53
2018-11-13T04:38:57.236Z,1.44
2018-11-13T04:39:57.706Z,1.46
2018-11-13T04:40:58.177Z,1.58
2018-11-13T04:41:58.648Z,1.64
2018-11-13T04:42:59.116Z,1.62
2018-11-13T04:43:59.587Z,1.57
2018-11-13T04:45:00.056Z,1.60
2018-11-13T04:46:00.527Z,1.60
2018-11-13T04:47:00.999Z,1.61
2018-11-13T04:48:01.468Z,1.58
2018-11-13T04:49:01.939Z,1.60
2018-11-13T04:50:02.413Z,1.64
2018-11-13T04:51:02.884Z,1.64
2018-11-13T04:52:03.357Z,1.66
2018-11-13T04:53:03.827Z,1.62
2018-11-13T04:54:04.295Z,1.60
2018-11-13T04:55:04.768Z,1.57
2018-11-13T04:56:05.244Z,1.58
2018-11-13T04:57:05.712Z,1.58
2018-11-13T04:58:06.184Z,1.57
2018-11-13T04:59:06.655Z,1.58
2018-11-13T05:00:07.129Z,1.60
2018-11-13T05:01:07.600Z,1.59
2018-11-13T05:02:08.072Z,1.54
2018-11-13T05:03:08.547Z,1.56
2018-11-13T05:04:09.016Z,1.53
2018-11-13T05:05:09.492Z,1.52
2018-11-13T05:06:09.962Z,1.50
2018-11-13T05:07:10.434Z,1.46
2018-11-13T05:08:10.910Z,1.38
2018-11-13T05:09:11.381Z,1.30
2018-11-13T05:10:11.937Z,1.26
2018-11-13T05:11:12.325Z,1.31
2018-11-13T05:12:12.801Z,1.42
2018-11-13T05:13:13.273Z,1.48
2018-11-13T05:14:13.744Z,1.51
2018-11-13T05:15:14.220Z,1.48
2018-11-13T05:16:14.697Z,1.48
2018-11-13T05:17:15.164Z,1.44
2018-11-13T05:18:15.638Z,1.42
2018-11-13T05:19:16.111Z,1.44
2018-11-13T05:20:16.584Z,1.42
2018-11-13T05:21:17.058Z,1.39
2018-11-13T05:22:17.530Z,1.46
2018-11-13T05:23:18.068Z,1.46
2018-11-13T05:24:18.475Z,1.45
2018-11-13T05:25:18.950Z,1.36
2018-11-13T05:26:19.416Z,1.30
2018-11-13T05:27:19.890Z,1.19
2018-11-13T05:28:20.361Z,1.16
2018-11-13T05:29:20.834Z,1.16
2018-11-13T05:30:21.305Z,1.14
2018-11-13T05:31:21.773Z,1.16
2018-11-13T05:32:22.248Z,1.22
2018-11-13T05:33:22.717Z,1.20
2018-11-13T05:34:23.187Z,1.19
2018-11-13T05:35:23.657Z,1.25
2018-11-13T05:36:24.127Z,1.30
2018-11-13T05:37:24.597Z,1.34
2018-11-13T05:38:25.065Z,1.34
2018-11-13T05:39:25.536Z,1.34
2018-11-13T05:40:26.007Z,1.28
2018-11-13T05:41:26.503Z,1.26
2018-11-13T05:42:26.945Z,1.26
2018-11-13T05:43:27.412Z,1.26
2018-11-13T05:44:27.883Z,1.23
2018-11-13T05:45:28.353Z,1.24
2018-11-13T05:46:28.821Z,1.21
2018-11-13T05:47:29.290Z,1.10
2018-11-13T05:48:29.759Z,1.06
2018-11-13T05:49:30.233Z,1.05
2018-11-13T05:50:30.698Z,1.06
2018-11-13T05:51:31.166Z,1.06
2018-11-13T05:52:31.634Z,1.08
2018-11-13T05:53:32.107Z,1.08
2018-11-13T05:54:32.572Z,1.09
2018-11-13T05:55:33.044Z,1.09
2018-11-13T05:56:33.515Z,1.05
2018-11-13T05:57:33.982Z,1.06
2018-11-13T05:58:34.452Z,1.12
2018-11-13T05:59:34.945Z,1.16
2018-11-13T06:00:35.392Z,1.19
2018-11-13T06:01:35.859Z,1.20
2018-11-13T06:02:36.332Z,1.08
2018-11-13T06:03:36.855Z,1.08
2018-11-13T06:04:37.272Z,1.08
2018-11-13T06:05:37.744Z,1.09
2018-11-13T06:06:38.217Z,1.09
2018-11-13T06:07:38.685Z,1.06
2018-11-13T06:08:39.211Z,1.01
2018-11-13T06:09:39.636Z,0.96
2018-11-13T06:10:40.099Z,0.89
2018-11-13T06:11:40.596Z,0.84
2018-11-13T06:12:41.036Z,0.83
2018-11-13T06:13:41.508Z,0.86
2018-11-13T06:14:41.979Z,0.92
2018-11-13T06:15:42.450Z,0.91
2018-11-13T06:16:42.925Z,0.87
2018-11-13T06:17:43.394Z,0.86
2018-11-13T06:18:43.864Z,0.81
2018-11-13T06:19:44.335Z,0.73
2018-11-13T06:20:44.812Z,0.71
2018-11-13T06:21:45.283Z,0.86
2018-11-13T06:22:45.756Z,1.00
2018-11-13T06:23:46.225Z,1.10
2018-11-13T06:24:46.696Z,1.18
2018-11-13T06:25:47.169Z,1.22
2018-11-13T06:26:47.641Z,1.17
2018-11-13T06:27:48.116Z,1.12
2018-11-13T06:28:48.586Z,1.08
2018-11-13T06:29:49.060Z,1.08
2018-11-13T06:30:49.532Z,1.04
2018-11-13T06:31:50.002Z,0.92
2018-11-13T06:32:50.479Z,0.75
2018-11-13T06:33:50.953Z,0.62
2018-11-13T06:34:51.424Z,0.58
2018-11-13T06:35:51.897Z,0.60
2018-11-13T06:36:52.369Z,0.63
2018-11-13T06:37:52.843Z,0.68
2018-11-13T06:38:53.332Z,0.70
2018-11-13T06:39:53.789Z,0.74
2018-11-13T06:40:54.261Z,0.69
2018-11-13T06:41:54.735Z,0.65
2018-11-13T06:42:55.208Z,0.62
2018-11-13T06:43:55.679Z,0.64
2018-11-13T06:44:56.154Z,0.60
2018-11-13T06:45:56.625Z,0.52
2018-11-13T06:46:57.098Z,0.46
2018-11-13T06:47:57.573Z,0.43
2018-11-13T06:48:58.165Z,0.41
2018-11-13T06:49:58.515Z,0.36
2018-11-13T06:50:58.986Z,0.35
2018-11-13T06:51:59.457Z,0.35
2018-11-13T06:52:59.929Z,0.40
2018-11-13T06:54:00.401Z,0.44
2018-11-13T06:55:00.872Z,0.47
2018-11-13T06:56:01.344Z,0.48
2018-11-13T06:57:01.813Z,0.56
2018-11-13T06:58:02.283Z,0.62
2018-11-13T06:59:02.753Z,0.62
2018-11-13T07:00:03.228Z,0.62
2018-11-13T07:01:03.694Z,0.66
2018-11-13T07:02:04.163Z,0.67
2018-11-13T07:03:04.631Z,0.62
2018-11-13T07:04:05.105Z,0.62
2018-11-13T07:05:05.631Z,0.58
2018-11-13T07:06:06.041Z,0.54
2018-11-13T07:07:06.510Z,0.54
2018-11-13T07:08:06.983Z,0.48
2018-11-13T07:09:07.450Z,0.44
2018-11-13T07:10:07.918Z,0.39
2018-11-13T07:11:08.419Z,0.42
2018-11-13T07:12:08.855Z,0.46
2018-11-13T07:13:09.324Z,0.50
2018-11-13T07:14:09.796Z,0.59
2018-11-13T07:15:10.261Z,0.70
2018-11-13T07:16:10.734Z,0.80
2018-11-13T07:17:11.202Z,0.75
2018-11-13T07:18:11.691Z,0.74
2018-11-13T07:19:12.140Z,0.77
2018-11-13T07:20:12.666Z,0.87
2018-11-13T07:21:13.080Z,0.94
2018-11-13T07:22:13.547Z,0.84
2018-11-13T07:23:14.018Z,0.76
2018-11-13T07:24:14.487Z,0.74
2018-11-13T07:25:14.988Z,0.84
2018-11-13T07:26:15.433Z,0.84
2018-11-13T07:27:15.909Z,0.84
2018-11-13T07:28:16.371Z,0.82
2018-11-13T07:29:16.839Z,0.86
2018-11-13T07:30:17.309Z,0.85
2018-11-13T07:31:17.834Z,0.87
2018-11-13T07:32:18.247Z,0.86
2018-11-13T07:33:18.721Z,0.88
2018-11-13T07:34:19.277Z,0.86
2018-11-13T07:35:19.663Z,0.88
2018-11-13T07:36:20.132Z,0.85
2018-11-13T07:37:20.602Z,1.02
2018-11-13T07:38:21.073Z,1.22
2018-11-13T07:39:21.545Z,1.36
2018-11-13T07:40:22.016Z,1.30
2018-11-13T07:41:22.488Z,1.20
2018-11-13T07:42:22.965Z,1.17
2018-11-13T07:43:23.432Z,1.19
2018-11-13T07:44:23.904Z,1.19
2018-11-13T07:45:24.375Z,1.24
2018-11-13T07:46:24.852Z,1.32
2018-11-13T07:47:25.382Z,1.31
2018-11-13T07:48:25.791Z,1.33
2018-11-13T07:49:26.263Z,1.50
2018-11-13T07:50:26.738Z,1.56
2018-11-13T07:51:27.208Z,1.56
2018-11-13T07:52:27.680Z,1.52
2018-11-13T07:53:28.158Z,1.44
2018-11-13T07:54:28.654Z,1.36
2018-11-13T07:55:29.101Z,1.28
2018-11-13T07:56:29.573Z,1.24
2018-11-13T07:57:30.046Z,1.18
2018-11-13T07:58:30.591Z,1.12
2018-11-13T07:59:30.992Z,1.06
2018-11-13T08:00:31.464Z,1.00
2018-11-13T08:01:31.940Z,0.93
2018-11-13T08:02:32.414Z,0.88
2018-11-13T08:03:32.890Z,1.02
2018-11-13T08:04:33.362Z,1.20
2018-11-13T08:05:33.883Z,1.36
2018-11-13T08:06:34.318Z,1.50
2018-11-13T08:07:34.777Z,1.56
2018-11-13T08:08:35.249Z,1.56
2018-11-13T08:09:35.725Z,1.43
2018-11-13T08:10:36.196Z,1.26
2018-11-13T08:11:36.670Z,1.16
2018-11-13T08:12:37.180Z,1.11
2018-11-13T08:13:37.659Z,1.08
2018-11-13T08:14:38.084Z,1.00
2018-11-13T08:15:38.574Z,1.05
2018-11-13T08:16:39.030Z,0.98
2018-11-13T11:36:24.417Z,0.00
2018-11-13T11:37:12.949Z,0.13
2018-11-13T11:38:13.421Z,0.04
2018-11-13T11:39:13.959Z,-0.03
2018-11-13T11:40:14.372Z,0.00
2018-11-13T11:41:14.845Z,0.08
2018-11-13T11:42:15.318Z,0.14
2018-11-13T11:43:15.795Z,0.26
2018-11-13T11:44:16.272Z,0.40
2018-11-13T11:45:16.747Z,0.60
2018-11-13T11:46:17.216Z,0.70
2018-11-13T11:47:17.689Z,0.88
2018-11-13T11:48:18.161Z,0.97
2018-11-13T11:49:18.635Z,0.98
2018-11-13T11:50:19.111Z,0.98
2018-11-13T11:51:19.580Z,0.98
2018-11-13T11:52:20.054Z,0.91
2018-11-13T11:53:20.526Z,0.76
2018-11-13T11:54:20.998Z,0.68
2018-11-13T11:55:21.470Z,0.73
2018-11-13T11:56:21.943Z,0.87
2018-11-13T11:57:22.414Z,0.94
2018-11-13T11:58:22.887Z,0.84
2018-11-13T11:59:23.357Z,0.86
2018-11-13T12:00:23.833Z,0.76
2018-11-13T12:01:24.301Z,0.68
2018-11-13T12:02:24.803Z,0.50
2018-11-13T12:03:25.246Z,0.45
2018-11-13T12:04:25.715Z,0.38
2018-11-13T12:05:26.186Z,0.40
2018-11-13T12:06:26.656Z,0.47
2018-11-13T12:07:27.127Z,0.52
2018-11-13T12:08:27.597Z,0.60
2018-11-13T12:09:28.068Z,0.62
2018-11-13T12:10:28.540Z,0.64
2018-11-13T12:11:29.013Z,0.58
2018-11-13T12:12:29.482Z,0.54
2018-11-13T12:13:29.952Z,0.46
2018-11-13T12:14:30.425Z,0.48
2018-11-13T12:15:30.893Z,0.44
2018-11-13T12:16:31.365Z,0.55
2018-11-13T12:17:31.832Z,0.62
2018-11-13T12:18:32.307Z,0.72
2018-11-13T12:19:32.944Z,0.76
2018-11-13T12:20:33.248Z,0.73
2018-11-13T12:21:33.721Z,0.77
2018-11-13T12:22:34.188Z,0.66
2018-11-13T12:23:34.670Z,0.56
2018-11-13T12:24:35.135Z,0.54
2018-11-13T12:25:35.644Z,0.47
2018-11-13T12:26:36.076Z,0.36
2018-11-13T12:27:36.548Z,0.12
2018-11-13T12:28:37.020Z,0.06
2018-11-13T12:29:37.493Z,0.10
2018-11-13T12:30:37.966Z,0.08
2018-11-13T12:31:38.440Z,0.16
2018-11-13T12:32:38.912Z,0.07
2018-11-13T12:33:39.382Z,-0.12
2018-11-13T12:34:39.941Z,0.00
2018-11-13T12:35:40.332Z,-0.03
2018-11-13T12:36:40.813Z,-0.04
2018-11-13T12:37:41.279Z,0.09
2018-11-13T12:38:41.755Z,0.37
2018-11-13T12:39:42.227Z,0.48
2018-11-13T12:40:42.802Z,0.54
2018-11-13T12:41:43.176Z,0.65
2018-11-13T12:42:43.651Z,0.66
2018-11-13T12:43:44.154Z,0.70
2018-11-13T12:44:44.600Z,0.78
2018-11-13T12:45:45.074Z,0.98
2018-11-13T12:46:45.552Z,1.10
2018-11-13T12:47:46.025Z,1.11
2018-11-13T12:48:46.543Z,1.10
2018-11-13T12:49:46.976Z,1.12
2018-11-13T12:50:47.448Z,1.07
2018-11-13T12:51:47.923Z,1.01
2018-11-13T12:52:48.398Z,0.94
2018-11-13T12:53:48.871Z,0.94
2018-11-13T12:54:49.344Z,0.96
2018-11-13T12:55:49.936Z,0.92
2018-11-13T12:56:50.294Z,0.71
2018-11-13T12:57:50.767Z,0.63
2018-11-13T12:58:51.243Z,0.62
2018-11-13T12:59:51.716Z,0.40
2018-11-13T13:00:52.188Z,0.32
2018-11-13T13:01:53.379Z,0.19
2018-11-13T13:02:53.137Z,0.23
2018-11-13T13:03:53.607Z,0.14
2018-11-13T13:04:54.083Z,0.22
2018-11-13T13:05:54.557Z,0.30
2018-11-13T13:06:55.025Z,0.28
2018-11-13T13:07:55.500Z,0.30
2018-11-13T13:08:55.971Z,0.28
2018-11-13T13:09:56.443Z,0.24
2018-11-13T13:10:56.915Z,0.16
2018-11-13T13:11:57.388Z,0.06
2018-11-13T13:12:57.860Z,0.10
2018-11-13T13:13:58.331Z,0.12
2018-11-13T13:14:58.894Z,0.14
2018-11-13T13:15:59.273Z,0.18
2018-11-13T13:16:59.744Z,0.26
2018-11-13T13:18:00.219Z,0.32
2018-11-13T13:19:00.746Z,0.26
2018-11-13T13:20:01.158Z,0.26
2018-11-13T13:21:01.630Z,0.24
2018-11-13T13:22:02.149Z,0.24
2018-11-13T13:23:02.574Z,0.18
2018-11-13T13:24:03.040Z,0.02
2018-11-13T13:25:03.511Z,-0.02
2018-11-13T13:26:03.980Z,0.06
2018-11-13T13:27:04.489Z,0.14
2018-11-13T13:28:04.922Z,0.29
2018-11-13T13:29:05.395Z,0.58
2018-11-13T13:30:05.864Z,0.46
2018-11-13T13:31:06.336Z,0.23
2018-11-13T13:32:06.812Z,0.13
2018-11-13T13:33:07.278Z,0.08
2018-11-13T13:34:07.749Z,0.02
2018-11-13T13:35:08.221Z,0.00
2018-11-13T13:36:08.690Z,0.22
2018-11-13T13:37:09.161Z,0.16
2018-11-13T13:38:09.632Z,0.02
2018-11-13T13:39:10.105Z,-0.18
2018-11-13T13:40:10.578Z,-0.38
2018-11-13T13:41:11.049Z,0.17
2018-11-13T13:42:11.520Z,0.71
2018-11-13T13:43:11.993Z,1.25
2018-11-13T13:44:12.469Z,1.24
2018-11-13T13:45:12.940Z,0.85
2018-11-13T13:46:13.412Z,0.48
2018-11-13T13:47:13.885Z,0.23
2018-11-13T13:48:14.359Z,0.22
2018-11-13T13:49:14.831Z,0.28
2018-11-13T13:50:15.306Z,0.48
2018-11-13T13:51:15.781Z,0.28
2018-11-13T13:52:16.256Z,0.02
2018-11-13T13:53:16.731Z,-0.18
2018-11-13T13:54:17.236Z,-0.18
2018-11-13T13:55:17.773Z,0.06
2018-11-13T13:56:18.155Z,0.47
2018-11-13T13:57:18.627Z,0.58
2018-11-13T13:58:19.102Z,0.34
2018-11-13T13:59:19.677Z,0.10
2018-11-13T14:00:20.310Z,-0.08
2018-11-13T14:01:20.525Z,-0.16
2018-11-13T14:02:20.999Z,-0.19
2018-11-13T14:03:21.477Z,-0.15
2018-11-13T14:04:21.950Z,0.10
2018-11-13T14:05:22.423Z,0.07
2018-11-13T14:06:22.899Z,-0.12
2018-11-13T14:07:23.375Z,0.22
2018-11-13T14:08:23.877Z,0.67
2018-11-13T14:09:24.408Z,0.82
2018-11-13T14:10:24.798Z,1.14
2018-11-13T14:11:25.266Z,1.23
2018-11-13T14:12:25.740Z,0.94
2018-11-13T14:13:26.215Z,0.72
2018-11-13T14:14:26.691Z,0.66
2018-11-13T14:15:27.217Z,0.95
2018-11-13T14:16:27.634Z,1.02
2018-11-13T14:17:28.108Z,0.96
2018-11-13T14:18:28.577Z,0.84
2018-11-13T14:19:29.055Z,0.71
2018-11-13T14:20:29.528Z,1.09
2018-11-13T14:21:29.999Z,1.26
2018-11-13T14:22:30.468Z,1.40
2018-11-13T14:23:30.943Z,1.38
2018-11-13T14:24:31.414Z,1.38
2018-11-13T14:25:31.889Z,1.30
2018-11-13T14:26:32.355Z,1.14
2018-11-13T14:27:32.836Z,0.92
2018-11-13T14:28:33.302Z,0.72
2018-11-13T14:29:33.771Z,0.90
2018-11-13T14:30:34.250Z,0.89
2018-11-13T14:31:34.713Z,0.72
2018-11-13T14:32:35.186Z,0.54
2018-11-13T14:33:35.657Z,0.36
2018-11-13T14:34:36.125Z,0.28
2018-11-13T14:35:36.657Z,0.30
2018-11-13T14:36:37.068Z,0.20
2018-11-13T14:37:37.536Z,0.14
2018-11-13T14:38:38.010Z,0.08
2018-11-13T14:39:38.477Z,0.01
2018-11-13T14:40:38.947Z,-0.10
2018-11-13T14:41:39.418Z,-0.20
2018-11-13T14:42:39.893Z,-0.30
2018-11-13T14:43:40.359Z,-0.33
2018-11-13T14:44:40.831Z,-0.42
2018-11-13T14:45:41.324Z,-0.44
2018-11-13T14:46:41.891Z,-0.41
2018-11-13T14:47:42.240Z,-0.42
2018-11-13T14:48:42.714Z,-0.40
2018-11-13T14:49:43.182Z,-0.38
2018-11-13T14:50:43.662Z,-0.40
2018-11-13T14:51:44.126Z,-0.43
2018-11-13T14:52:44.596Z,-0.44
2018-11-13T14:53:45.069Z,-0.30
2018-11-13T14:54:45.539Z,-0.24
2018-11-13T14:55:46.015Z,-0.32
2018-11-13T14:56:46.484Z,-0.38
2018-11-13T14:57:46.963Z,-0.40
2018-11-13T14:58:47.427Z,-0.52
2018-11-13T14:59:47.900Z,-0.49
2018-11-13T15:00:48.373Z,-0.13
2018-11-13T15:01:48.845Z,0.12
2018-11-13T15:02:49.320Z,0.15
2018-11-13T15:03:49.791Z,-0.08
2018-11-13T15:04:50.263Z,0.12
2018-11-13T15:05:50.740Z,0.24
2018-11-13T15:06:51.212Z,0.56
2018-11-13T15:07:51.775Z,0.46
2018-11-13T15:08:52.159Z,0.27
2018-11-13T15:09:52.637Z,0.30
2018-11-13T15:10:53.109Z,0.20
2018-11-13T15:11:53.585Z,0.19
2018-11-13T15:12:54.057Z,-0.06
2018-11-13T15:13:54.530Z,-0.26
2018-11-13T15:14:55.006Z,-0.34
2018-11-13T15:15:55.479Z,-0.39
2018-11-13T15:16:55.953Z,-0.36
2018-11-13T15:17:56.428Z,-0.12
2018-11-13T15:18:56.903Z,0.12
2018-11-13T15:19:57.379Z,0.17
2018-11-13T15:20:57.848Z,0.09
2018-11-13T15:21:58.381Z,0.14
2018-11-13T15:22:58.797Z,0.02
2018-11-13T15:23:59.270Z,-0.26
2018-11-13T15:24:59.743Z,-0.39
2018-11-13T15:26:00.221Z,-0.46
2018-11-13T15:27:00.690Z,-0.48
2018-11-13T15:28:01.162Z,-0.34
2018-11-13T15:29:01.638Z,-0.35
2018-11-13T15:30:02.111Z,-0.45
2018-11-13T15:31:02.675Z,-0.60
2018-11-13T15:32:03.053Z,-0.60
2018-11-13T15:33:03.529Z,-0.61
2018-11-13T15:34:04.000Z,-0.62
2018-11-13T15:35:04.473Z,-0.64
2018-11-13T15:36:04.941Z,-0.65
2018-11-13T15:37:05.412Z,-0.64
2018-11-13T15:38:05.886Z,-0.63
2018-11-13T15:39:06.354Z,-0.64
2018-11-13T15:40:06.827Z,-0.63
2018-11-13T15:41:07.297Z,-0.64
2018-11-13T15:42:07.769Z,-0.64
2018-11-13T15:43:08.238Z,-0.61
2018-11-13T15:44:08.711Z,-0.60
2018-11-13T15:45:09.263Z,-0.64
2018-11-13T15:46:09.650Z,-0.66
2018-11-13T15:47:10.122Z,-0.67
2018-11-13T15:48:10.594Z,-0.62
2018-11-13T15:49:11.062Z,-0.63
2018-11-13T15:50:11.531Z,-0.66
2018-11-13T15:51:12.002Z,-0.72
2018-11-13T15:52:12.605Z,-0.65
2018-11-13T15:53:12.942Z,-0.64
2018-11-13T15:54:13.411Z,-0.64
2018-11-13T15:55:13.884Z,-0.62
2018-11-13T15:56:14.351Z,-0.62
2018-11-13T15:57:14.822Z,-0.64
2018-11-13T15:58:15.297Z,-0.72
2018-11-13T15:59:15.849Z,-0.81
2018-11-13T16:00:16.233Z,-0.77
2018-11-13T16:01:16.703Z,-0.70
2018-11-13T16:02:17.174Z,-0.66
2018-11-13T16:03:17.647Z,-0.66
2018-11-13T16:04:18.114Z,-0.68
2018-11-13T16:05:18.589Z,-0.74
2018-11-13T16:06:19.158Z,-0.74
2018-11-13T16:07:19.529Z,-0.72
2018-11-13T16:08:20.002Z,-0.70
2018-11-13T16:09:20.472Z,-0.68
2018-11-13T16:10:20.943Z,-0.72
2018-11-13T16:11:21.415Z,-0.72
2018-11-13T16:12:21.913Z,-0.73
2018-11-13T16:13:22.360Z,-0.69
2018-11-13T16:14:22.839Z,-0.74
2018-11-13T16:15:23.315Z,-0.72
2018-11-13T16:16:23.778Z,-0.73
2018-11-13T16:17:24.250Z,-0.74
2018-11-13T16:18:24.793Z,-0.74
2018-11-13T16:19:25.197Z,-0.76
2018-11-13T16:20:25.671Z,-0.80
2018-11-13T16:21:26.147Z,-0.82
2018-11-13T16:22:26.618Z,-0.82
2018-11-13T16:23:27.091Z,-0.81
2018-11-13T16:24:27.565Z,-0.76
2018-11-13T16:25:28.039Z,-0.74
2018-11-13T16:26:28.514Z,-0.80
2018-11-13T16:27:28.985Z,-0.90
2018-11-13T16:28:29.492Z,-0.98
2018-11-13T16:29:29.936Z,-0.88
2018-11-13T16:30:30.567Z,-0.82
2018-11-13T16:31:30.956Z,-0.80
2018-11-13T16:32:31.354Z,-0.80
2018-11-13T16:33:31.828Z,-0.84
2018-11-13T16:34:32.301Z,-0.89
2018-11-13T16:35:32.862Z,-0.91
2018-11-13T16:36:33.341Z,-0.96
2018-11-13T16:37:33.719Z,-0.97
2018-11-13T16:38:34.204Z,-0.96
2018-11-13T16:39:34.664Z,-0.98